createdAt,value
2023-03-29T00:00:02.162Z,29.20
2023-03-29T00:02:39.118Z,27.33
2023-03-29T00:05:06.812Z,28.73
2023-03-29T00:07:33.810Z,29.30
2023-03-29T00:10:04.798Z,26.43
2023-03-29T00:12:32.468Z,29.43
2023-03-29T00:14:59.713Z,31.03
2023-03-29T00:17:26.822Z,31.53
2023-03-29T00:19:53.978Z,33.93
2023-03-29T00:22:21.481Z,28.33
2023-03-29T00:24:49.285Z,33.07
2023-03-29T00:27:17.116Z,29.07
2023-03-29T00:29:44.233Z,30.27
2023-03-29T00:32:11.315Z,29.30
2023-03-29T00:34:38.405Z,37.13
2023-03-29T00:37:08.868Z,30.13
2023-03-29T00:39:37.160Z,29.00
2023-03-29T00:42:04.561Z,35.17
2023-03-29T00:45:06.180Z,35.30
2023-03-29T00:47:57.448Z,33.10
2023-03-29T00:50:34.661Z,35.30
2023-03-29T00:53:26.580Z,36.83
2023-03-29T00:56:02.507Z,34.60
2023-03-29T00:58:46.834Z,37.33
2023-03-29T01:01:19.750Z,39.50
2023-03-29T01:03:54.577Z,36.03
2023-03-29T01:06:25.058Z,38.30
2023-03-29T01:09:01.430Z,32.50
2023-03-29T01:11:55.724Z,42.13
2023-03-29T01:14:49.908Z,38.30
2023-03-29T01:17:21.871Z,40.97
2023-03-29T01:19:58.355Z,38.03
2023-03-29T01:22:28.392Z,36.30
2023-03-29T01:25:11.424Z,38.13
2023-03-29T01:27:56.036Z,37.50
2023-03-29T01:31:03.834Z,40.60
2023-03-29T01:33:42.870Z,37.50
2023-03-29T01:36:27.227Z,35.17
2023-03-29T01:39:03.457Z,38.10
2023-03-29T01:42:08.215Z,39.20
2023-03-29T01:44:45.546Z,38.73
2023-03-29T01:47:30.342Z,39.60
2023-03-29T01:50:09.339Z,42.80
2023-03-29T01:52:42.385Z,38.47
2023-03-29T01:55:14.880Z,34.80
2023-03-29T01:57:44.951Z,33.70
2023-03-29T02:00:18.009Z,37.00
2023-03-29T02:02:47.025Z,34.50
2023-03-29T02:05:16.483Z,37.73
2023-03-29T02:07:46.275Z,35.93
2023-03-29T02:10:14.721Z,41.27
2023-03-29T02:12:42.484Z,40.07
2023-03-29T02:15:19.303Z,37.83
2023-03-29T02:17:47.953Z,41.77
2023-03-29T02:20:19.089Z,36.93
2023-03-29T02:23:14.676Z,42.47
2023-03-29T02:25:43.596Z,39.33
2023-03-29T02:28:12.084Z,37.23
2023-03-29T02:31:23.621Z,43.53
2023-03-29T02:34:33.003Z,42.70
2023-03-29T02:37:06.967Z,43.37
2023-03-29T02:39:36.037Z,46.30
2023-03-29T02:42:06.291Z,45.03
2023-03-29T02:44:38.092Z,45.83
2023-03-29T02:47:16.715Z,45.13
2023-03-29T02:49:44.432Z,48.13
2023-03-29T02:52:16.150Z,44.80
2023-03-29T02:54:45.938Z,45.50
2023-03-29T02:57:13.484Z,45.10
2023-03-29T02:59:44.052Z,46.90
2023-03-29T03:02:11.995Z,46.90
2023-03-29T03:04:39.667Z,44.60
2023-03-29T03:07:06.920Z,47.33
2023-03-29T03:09:34.375Z,45.90
2023-03-29T03:12:01.944Z,48.60
2023-03-29T03:14:29.560Z,41.00
2023-03-29T03:17:00.644Z,48.13
2023-03-29T03:19:29.932Z,44.63
2023-03-29T03:21:57.228Z,43.27
2023-03-29T03:24:24.412Z,43.10
2023-03-29T03:26:51.986Z,45.03
2023-03-29T03:29:19.711Z,44.07
2023-03-29T03:32:05.864Z,44.60
2023-03-29T03:34:51.748Z,42.23
2023-03-29T03:37:22.624Z,54.90
2023-03-29T03:39:49.897Z,49.07
2023-03-29T03:42:17.809Z,47.83
2023-03-29T03:44:46.430Z,45.83
2023-03-29T03:47:37.848Z,40.93
2023-03-29T03:50:19.598Z,50.47
2023-03-29T03:52:47.070Z,47.20
2023-03-29T03:55:14.843Z,40.90
2023-03-29T03:58:00.667Z,42.10
2023-03-29T04:00:27.763Z,49.60
2023-03-29T04:03:11.154Z,46.97
2023-03-29T04:05:40.680Z,43.70
2023-03-29T04:08:09.115Z,44.93
2023-03-29T04:10:56.963Z,42.57
2023-03-29T04:13:29.569Z,46.57
2023-03-29T04:16:13.594Z,45.23
2023-03-29T04:18:41.084Z,47.13
2023-03-29T04:21:08.436Z,47.67
2023-03-29T04:23:36.683Z,56.57
2023-03-29T04:26:04.187Z,53.20
2023-03-29T04:28:57.587Z,54.60
2023-03-29T04:31:50.771Z,56.93
2023-03-29T04:34:44.246Z,48.43
2023-03-29T04:37:11.874Z,48.73
2023-03-29T04:39:40.186Z,41.97
2023-03-29T04:42:09.017Z,46.10
2023-03-29T04:44:37.087Z,47.87
2023-03-29T04:47:08.169Z,46.83
2023-03-29T04:49:50.981Z,46.03
2023-03-29T04:52:33.301Z,44.93
2023-03-29T04:55:03.492Z,44.93
2023-03-29T04:58:02.923Z,46.00
2023-03-29T05:00:41.187Z,46.10
2023-03-29T05:03:40.568Z,40.80
2023-03-29T05:06:17.947Z,45.80
2023-03-29T05:08:45.357Z,46.73
2023-03-29T05:11:42.172Z,44.07
2023-03-29T05:14:09.606Z,44.93
2023-03-29T05:16:38.210Z,47.77
2023-03-29T05:19:06.125Z,49.30
2023-03-29T05:21:37.684Z,41.17
2023-03-29T05:24:09.126Z,44.53
2023-03-29T05:26:54.541Z,45.13
2023-03-29T05:29:21.791Z,34.67
2023-03-29T05:31:54.791Z,42.07
2023-03-29T05:34:22.908Z,40.47
2023-03-29T05:36:57.121Z,38.50
2023-03-29T05:39:26.142Z,40.63
2023-03-29T05:41:55.075Z,38.70
2023-03-29T05:44:32.238Z,30.20
2023-03-29T05:47:09.303Z,32.80
2023-03-29T05:49:38.192Z,35.73
2023-03-29T05:52:14.714Z,32.33
2023-03-29T05:54:42.495Z,29.00
2023-03-29T05:57:12.063Z,26.73
2023-03-29T05:59:40.369Z,26.67
2023-03-29T06:02:07.754Z,25.03
2023-03-29T06:04:40.077Z,23.73
2023-03-29T06:07:27.453Z,26.53
2023-03-29T06:10:15.744Z,22.23
2023-03-29T06:12:47.825Z,23.37
2023-03-29T06:15:16.192Z,21.13
2023-03-29T06:18:02.445Z,22.50
2023-03-29T06:20:30.251Z,22.77
2023-03-29T06:23:03.396Z,22.33
2023-03-29T06:25:30.431Z,21.57
2023-03-29T06:27:58.301Z,20.97
2023-03-29T06:30:26.003Z,21.90
2023-03-29T06:32:57.920Z,22.00
2023-03-29T06:35:51.445Z,25.63
2023-03-29T06:38:26.916Z,23.67
2023-03-29T06:41:12.838Z,23.97
2023-03-29T06:44:12.260Z,20.97
2023-03-29T06:47:00.056Z,26.43
2023-03-29T06:49:28.442Z,19.83
2023-03-29T06:52:30.557Z,18.80
2023-03-29T06:54:58.112Z,18.00
2023-03-29T06:57:26.285Z,24.67
2023-03-29T06:59:54.078Z,23.07
2023-03-29T07:02:34.707Z,24.13
2023-03-29T07:05:13.675Z,17.77
2023-03-29T07:08:11.989Z,20.60
2023-03-29T07:11:00.239Z,18.60
2023-03-29T07:13:56.431Z,16.80
2023-03-29T07:16:24.267Z,17.10
2023-03-29T07:19:05.939Z,18.98
2023-03-29T07:21:53.517Z,17.20
2023-03-29T07:24:23.926Z,16.23
2023-03-29T07:27:03.418Z,15.85
2023-03-29T07:29:33.022Z,15.68
2023-03-29T07:32:00.329Z,17.27
2023-03-29T07:34:53.635Z,15.32
2023-03-29T07:37:30.694Z,15.93
2023-03-29T07:40:00.327Z,18.70
2023-03-29T07:42:39.302Z,15.20
2023-03-29T07:45:10.197Z,13.95
2023-03-29T07:47:53.666Z,14.95
2023-03-29T07:50:20.864Z,15.68
2023-03-29T07:52:48.398Z,19.05
2023-03-29T07:55:16.544Z,18.30
2023-03-29T07:58:03.707Z,13.98
2023-03-29T08:00:33.183Z,18.40
2023-03-29T08:03:27.861Z,15.13
2023-03-29T08:05:55.045Z,15.88
2023-03-29T08:08:22.212Z,15.40
2023-03-29T08:10:57.156Z,16.98
2023-03-29T08:13:42.580Z,15.65
2023-03-29T08:16:33.688Z,14.38
2023-03-29T08:19:14.726Z,17.45
2023-03-29T08:22:00.878Z,16.08
2023-03-29T08:24:35.470Z,14.57
2023-03-29T08:27:06.441Z,13.10
2023-03-29T08:29:34.100Z,12.52
2023-03-29T08:32:01.323Z,12.07
2023-03-29T08:34:29.047Z,11.32
2023-03-29T08:37:24.682Z,8.57
2023-03-29T08:39:54.187Z,10.85
2023-03-29T08:42:43.123Z,9.27
2023-03-29T08:45:15.940Z,9.25
2023-03-29T08:48:02.682Z,7.88
2023-03-29T08:50:36.866Z,9.35
2023-03-29T08:53:19.200Z,10.95
2023-03-29T08:56:07.682Z,9.90
2023-03-29T08:58:57.825Z,10.65
2023-03-29T09:01:32.795Z,8.45
2023-03-29T09:04:20.282Z,10.43
2023-03-29T09:07:10.896Z,11.75
2023-03-29T09:09:46.147Z,7.80
2023-03-29T09:12:57.699Z,7.45
2023-03-29T09:15:31.124Z,9.93
2023-03-29T09:18:36.086Z,6.38
2023-03-29T09:21:16.590Z,6.32
2023-03-29T09:23:58.282Z,7.40
2023-03-29T09:26:52.865Z,6.25
2023-03-29T09:29:52.589Z,6.70
2023-03-29T09:32:31.901Z,5.75
2023-03-29T09:35:22.359Z,6.05
2023-03-29T09:37:53.229Z,9.70
2023-03-29T09:40:32.186Z,7.03
2023-03-29T09:43:12.646Z,6.90
2023-03-29T09:45:42.309Z,9.10
2023-03-29T09:48:19.373Z,7.43
2023-03-29T09:50:52.920Z,8.82
2023-03-29T09:53:21.689Z,5.47
2023-03-29T09:56:12.425Z,7.03
2023-03-29T09:58:48.414Z,8.93
2023-03-29T10:01:18.970Z,6.45
2023-03-29T10:03:52.522Z,5.97
2023-03-29T10:06:23.770Z,8.23
2023-03-29T10:08:59.151Z,7.68
2023-03-29T10:11:37.061Z,8.48
2023-03-29T10:14:41.050Z,5.18
2023-03-29T10:17:22.823Z,6.88
2023-03-29T10:19:52.207Z,8.95
2023-03-29T10:22:25.060Z,6.07
2023-03-29T10:24:54.466Z,5.63
2023-03-29T10:27:26.199Z,6.10
2023-03-29T10:29:55.416Z,5.05
2023-03-29T10:32:23.076Z,6.10
2023-03-29T10:34:52.184Z,6.10
2023-03-29T10:37:21.350Z,6.30
2023-03-29T10:39:49.155Z,6.90
2023-03-29T10:42:19.461Z,6.20
2023-03-29T10:44:58.092Z,5.43
2023-03-29T10:47:26.031Z,6.35
2023-03-29T10:49:57.097Z,6.68
2023-03-29T10:52:25.215Z,5.25
2023-03-29T10:54:54.555Z,4.13
2023-03-29T10:57:29.589Z,4.80
2023-03-29T11:00:08.799Z,6.47
2023-03-29T11:03:15.791Z,4.70
2023-03-29T11:06:07.087Z,6.10
2023-03-29T11:08:43.143Z,5.53
2023-03-29T11:12:08.262Z,8.02
2023-03-29T11:14:51.314Z,8.88
2023-03-29T11:17:27.623Z,7.97
2023-03-29T11:20:33.330Z,5.95
2023-03-29T11:23:06.846Z,6.85
2023-03-29T11:25:47.427Z,5.15
2023-03-29T11:28:31.602Z,7.70
2023-03-29T11:31:40.894Z,5.85
2023-03-29T11:34:17.696Z,7.10
2023-03-29T11:37:05.349Z,5.82
2023-03-29T11:39:59.625Z,5.43
2023-03-29T11:42:35.026Z,6.20
2023-03-29T11:45:05.172Z,6.18
2023-03-29T11:47:37.380Z,5.30
2023-03-29T11:50:21.200Z,7.10
2023-03-29T11:53:00.566Z,5.63
2023-03-29T11:55:31.068Z,7.47
2023-03-29T11:58:17.492Z,5.40
2023-03-29T12:00:55.780Z,5.05
2023-03-29T12:03:25.884Z,6.32
2023-03-29T12:06:18.425Z,6.95
2023-03-29T12:08:52.966Z,5.05
2023-03-29T12:11:30.428Z,5.00
2023-03-29T12:14:16.593Z,6.68
2023-03-29T12:16:52.075Z,7.10
2023-03-29T12:19:25.915Z,7.45
2023-03-29T12:21:56.119Z,6.78
2023-03-29T12:24:26.961Z,7.22
2023-03-29T12:27:03.024Z,9.88
2023-03-29T12:30:14.095Z,7.00
2023-03-29T12:33:07.849Z,8.27
2023-03-29T12:36:26.503Z,8.35
2023-03-29T12:39:16.623Z,6.07
2023-03-29T12:42:15.568Z,7.13
2023-03-29T12:45:02.030Z,6.72
2023-03-29T12:47:43.282Z,6.38
2023-03-29T12:50:31.563Z,8.68
2023-03-29T12:53:13.607Z,8.35
2023-03-29T12:55:43.808Z,6.43
2023-03-29T12:58:38.588Z,7.28
2023-03-29T13:01:08.704Z,6.18
2023-03-29T13:03:47.643Z,6.00
2023-03-29T13:06:46.820Z,10.20
2023-03-29T13:09:50.460Z,5.07
2023-03-29T13:12:28.550Z,6.00
2023-03-29T13:15:06.202Z,6.85
2023-03-29T13:17:48.703Z,6.78
2023-03-29T13:20:37.503Z,5.53
2023-03-29T13:23:22.499Z,6.00
2023-03-29T13:26:08.527Z,7.05
2023-03-29T13:29:03.604Z,8.32
2023-03-29T13:31:42.240Z,6.63
2023-03-29T13:34:31.037Z,5.85
2023-03-29T13:37:22.203Z,5.85
2023-03-29T13:39:53.067Z,6.28
2023-03-29T13:42:24.470Z,4.70
2023-03-29T13:44:52.200Z,5.30
2023-03-29T13:47:19.279Z,5.65
2023-03-29T13:49:54.257Z,6.85
2023-03-29T13:52:39.574Z,6.20
2023-03-29T13:55:27.166Z,8.00
2023-03-29T13:58:27.537Z,6.07
2023-03-29T14:01:17.966Z,6.13
2023-03-29T14:03:48.744Z,6.30
2023-03-29T14:06:22.243Z,6.43
2023-03-29T14:08:51.525Z,7.55
2023-03-29T14:11:24.987Z,8.85
2023-03-29T14:13:54.628Z,7.68
2023-03-29T14:16:22.202Z,8.27
2023-03-29T14:18:51.483Z,7.43
2023-03-29T14:21:21.128Z,8.23
2023-03-29T14:23:55.830Z,8.45
2023-03-29T14:26:30.510Z,7.97
2023-03-29T14:29:01.373Z,9.25
2023-03-29T14:31:46.781Z,6.80
2023-03-29T14:34:16.709Z,6.10
2023-03-29T14:36:49.379Z,6.65
2023-03-29T14:39:20.073Z,8.02
2023-03-29T14:41:53.040Z,10.57
2023-03-29T14:44:27.170Z,9.25
2023-03-29T14:46:55.659Z,8.82
2023-03-29T14:49:23.648Z,8.02
2023-03-29T14:51:52.319Z,8.15
2023-03-29T14:54:32.740Z,5.82
2023-03-29T14:57:03.726Z,9.20
2023-03-29T14:59:38.057Z,9.60
2023-03-29T15:02:21.905Z,8.25
2023-03-29T15:04:59.140Z,7.50
2023-03-29T15:07:28.429Z,6.85
2023-03-29T15:09:57.869Z,12.07
2023-03-29T15:12:25.443Z,8.40
2023-03-29T15:14:53.157Z,9.90
2023-03-29T15:17:50.521Z,7.50
2023-03-29T15:20:26.606Z,7.57
2023-03-29T15:23:18.431Z,10.38
2023-03-29T15:25:52.400Z,8.52
2023-03-29T15:28:28.864Z,9.77
2023-03-29T15:31:07.337Z,9.05
2023-03-29T15:33:37.920Z,9.50
2023-03-29T15:36:07.198Z,10.10
2023-03-29T15:38:43.297Z,10.40
2023-03-29T15:41:12.419Z,12.88
2023-03-29T15:43:39.728Z,8.75
2023-03-29T15:46:06.931Z,9.93
2023-03-29T15:48:34.353Z,10.02
2023-03-29T15:51:06.089Z,8.10
2023-03-29T15:53:33.830Z,12.95
2023-03-29T15:56:02.874Z,10.63
2023-03-29T15:58:32.576Z,8.48
2023-03-29T16:01:23.817Z,6.70
2023-03-29T16:03:51.608Z,9.57
2023-03-29T16:06:18.723Z,8.32
2023-03-29T16:08:46.190Z,7.82
2023-03-29T16:11:13.274Z,6.43
2023-03-29T16:13:40.615Z,6.88
2023-03-29T16:16:12.394Z,9.88
2023-03-29T16:18:39.707Z,8.85
2023-03-29T16:21:11.777Z,7.93
2023-03-29T16:23:39.458Z,7.88
2023-03-29T16:26:06.875Z,10.18
2023-03-29T16:28:34.064Z,9.07
2023-03-29T16:31:01.327Z,9.50
2023-03-29T16:33:28.475Z,9.05
2023-03-29T16:35:56.191Z,8.52
2023-03-29T16:38:24.561Z,9.63
2023-03-29T16:40:52.624Z,9.63
2023-03-29T16:43:20.005Z,8.85
2023-03-29T16:45:47.177Z,9.65
2023-03-29T16:48:17.461Z,10.55
2023-03-29T16:50:51.566Z,12.45
2023-03-29T16:53:19.808Z,10.25
2023-03-29T16:55:47.899Z,12.63
2023-03-29T16:58:15.573Z,12.73
2023-03-29T17:00:45.005Z,11.73
2023-03-29T17:03:13.731Z,12.93
2023-03-29T17:05:46.246Z,10.85
2023-03-29T17:08:13.327Z,10.43
2023-03-29T17:10:41.589Z,11.50
2023-03-29T17:13:09.745Z,12.07
2023-03-29T17:15:39.597Z,12.07
2023-03-29T17:18:07.582Z,11.48
2023-03-29T17:20:34.828Z,12.55
2023-03-29T17:23:01.854Z,11.60
2023-03-29T17:25:28.882Z,9.38
2023-03-29T17:27:56.116Z,12.32
2023-03-29T17:30:23.327Z,11.45
2023-03-29T17:32:52.328Z,11.70
2023-03-29T17:35:19.783Z,14.63
2023-03-29T17:37:47.004Z,11.43
2023-03-29T17:40:14.289Z,15.82
2023-03-29T17:42:42.315Z,14.90
2023-03-29T17:45:10.927Z,17.95
2023-03-29T17:47:38.860Z,14.73
2023-03-29T17:50:07.911Z,14.55
2023-03-29T17:52:35.378Z,19.00
2023-03-29T17:55:02.706Z,16.85
2023-03-29T17:57:29.729Z,18.70
2023-03-29T17:59:56.875Z,17.63
2023-03-29T18:02:24.932Z,14.35
2023-03-29T18:04:52.191Z,22.48
2023-03-29T18:07:19.171Z,18.85
2023-03-29T18:09:46.236Z,22.00
2023-03-29T18:12:13.343Z,23.03
2023-03-29T18:14:40.530Z,23.93
2023-03-29T18:17:07.740Z,23.67
2023-03-29T18:19:35.186Z,27.17
2023-03-29T18:22:02.258Z,26.50
2023-03-29T18:24:29.674Z,29.53
2023-03-29T18:26:56.663Z,27.13
2023-03-29T18:29:24.137Z,25.63
2023-03-29T18:31:51.343Z,30.97
2023-03-29T18:34:18.536Z,26.00
2023-03-29T18:36:45.786Z,32.47
2023-03-29T18:39:13.862Z,28.43
2023-03-29T18:41:40.917Z,33.40
2023-03-29T18:44:08.129Z,34.57
2023-03-29T18:46:35.336Z,30.67
2023-03-29T18:49:03.133Z,29.57
2023-03-29T18:51:31.085Z,28.53
2023-03-29T18:53:58.591Z,29.80
2023-03-29T18:56:25.808Z,30.10
2023-03-29T18:58:53.727Z,37.10
2023-03-29T19:01:21.266Z,31.70
2023-03-29T19:03:48.616Z,30.80
2023-03-29T19:06:16.038Z,32.37
2023-03-29T19:08:43.408Z,34.40
2023-03-29T19:11:14.305Z,34.17
2023-03-29T19:13:42.563Z,34.13
2023-03-29T19:16:09.940Z,34.33
2023-03-29T19:18:37.383Z,28.97
2023-03-29T19:21:04.467Z,26.60
2023-03-29T19:23:32.277Z,33.10
2023-03-29T19:26:02.797Z,28.60
2023-03-29T19:28:31.196Z,27.30
2023-03-29T19:31:00.762Z,35.60
2023-03-29T19:33:29.343Z,32.83
2023-03-29T19:35:56.501Z,30.13
2023-03-29T19:38:23.619Z,37.30
2023-03-29T19:40:55.349Z,30.20
2023-03-29T19:43:22.438Z,30.90
2023-03-29T19:45:51.388Z,36.07
2023-03-29T19:48:23.869Z,31.37
2023-03-29T19:50:52.097Z,31.90
2023-03-29T19:53:19.445Z,26.47
2023-03-29T19:55:46.451Z,39.07
2023-03-29T19:58:13.461Z,37.03
2023-03-29T20:00:41.933Z,25.00
2023-03-29T20:03:10.188Z,26.70
2023-03-29T20:05:38.887Z,27.43
2023-03-29T20:08:07.326Z,25.53
2023-03-29T20:10:35.387Z,23.17
2023-03-29T20:13:03.719Z,25.10
2023-03-29T20:15:32.604Z,21.37
2023-03-29T20:18:00.733Z,23.37
2023-03-29T20:20:28.548Z,26.57
2023-03-29T20:23:04.505Z,23.97
2023-03-29T20:25:34.599Z,22.20
2023-03-29T20:28:01.597Z,24.27
2023-03-29T20:30:28.900Z,22.30
2023-03-29T20:32:56.242Z,21.37
2023-03-29T20:35:23.412Z,20.87
2023-03-29T20:37:50.532Z,21.77
2023-03-29T20:40:17.710Z,20.90
2023-03-29T20:42:46.367Z,21.77
2023-03-29T20:45:18.746Z,21.30
2023-03-29T20:47:50.623Z,21.97
2023-03-29T20:50:19.296Z,22.53
2023-03-29T20:52:46.852Z,20.93
2023-03-29T20:55:16.896Z,18.67
2023-03-29T20:57:44.104Z,20.17
2023-03-29T21:00:12.190Z,19.57
2023-03-29T21:02:39.659Z,18.07
2023-03-29T21:05:08.829Z,20.27
2023-03-29T21:07:39.064Z,19.37
2023-03-29T21:10:07.456Z,20.70
2023-03-29T21:12:35.100Z,20.73
2023-03-29T21:15:02.428Z,21.60
2023-03-29T21:17:29.853Z,18.83
2023-03-29T21:19:57.036Z,21.47
2023-03-29T21:22:24.916Z,22.03
2023-03-29T21:24:52.046Z,24.80
2023-03-29T21:27:19.172Z,21.77
2023-03-29T21:29:46.261Z,22.37
2023-03-29T21:32:13.460Z,19.20
2023-03-29T21:34:40.763Z,20.83
2023-03-29T21:37:08.142Z,22.80
2023-03-29T21:39:35.528Z,22.60
2023-03-29T21:42:02.712Z,19.03
2023-03-29T21:44:30.653Z,18.97
2023-03-29T21:46:59.289Z,20.13
2023-03-29T21:49:26.390Z,23.27
2023-03-29T21:51:55.282Z,21.77
2023-03-29T21:54:22.496Z,23.10
2023-03-29T21:56:49.563Z,17.77
2023-03-29T21:59:17.006Z,21.10
2023-03-29T22:01:44.283Z,20.23
2023-03-29T22:04:19.872Z,19.37
2023-03-29T22:06:52.800Z,20.17
2023-03-29T22:09:20.559Z,21.37
2023-03-29T22:11:48.638Z,19.57
2023-03-29T22:14:15.727Z,19.30
2023-03-29T22:16:42.950Z,20.57
2023-03-29T22:19:10.736Z,23.73
2023-03-29T22:21:37.825Z,20.70
2023-03-29T22:24:05.096Z,22.77
2023-03-29T22:26:33.177Z,24.50
2023-03-29T22:29:01.308Z,27.67
2023-03-29T22:31:29.831Z,26.63
2023-03-29T22:33:58.750Z,26.07
2023-03-29T22:36:28.330Z,25.93
2023-03-29T22:38:56.089Z,23.03
2023-03-29T22:41:24.976Z,24.87
2023-03-29T22:43:53.066Z,23.83
2023-03-29T22:46:20.724Z,29.23
2023-03-29T22:48:48.071Z,28.87
2023-03-29T22:51:16.254Z,20.87
2023-03-29T22:53:43.474Z,24.20
2023-03-29T22:56:10.727Z,25.77
2023-03-29T22:58:38.096Z,25.60
2023-03-29T23:01:06.719Z,26.40
2023-03-29T23:03:34.101Z,23.70
2023-03-29T23:06:04.824Z,25.33
2023-03-29T23:08:33.777Z,28.10
2023-03-29T23:11:02.128Z,23.90
2023-03-29T23:13:30.346Z,27.07
2023-03-29T23:15:59.361Z,26.37
2023-03-29T23:18:28.609Z,25.33
2023-03-29T23:20:57.490Z,24.40
2023-03-29T23:23:25.925Z,32.40
2023-03-29T23:25:53.970Z,27.87
2023-03-29T23:28:24.590Z,31.30
2023-03-29T23:31:05.443Z,23.73
2023-03-29T23:33:35.509Z,24.17
2023-03-29T23:36:06.239Z,26.77
2023-03-29T23:38:34.580Z,21.40
2023-03-29T23:41:04.734Z,30.23
2023-03-29T23:43:35.210Z,22.37
2023-03-29T23:46:08.177Z,31.47
2023-03-29T23:48:35.272Z,33.60
2023-03-29T23:51:03.187Z,32.90
2023-03-29T23:53:31.481Z,27.70
2023-03-29T23:56:03.370Z,21.53
2023-03-29T23:58:32.900Z,34.80
